createdAt,value
2022-08-18T00:00:06.418Z,15.10
2022-08-18T00:01:06.417Z,13.20
2022-08-18T00:02:06.515Z,14.10
2022-08-18T00:03:07.430Z,15.40
2022-08-18T00:04:34.973Z,14.90
2022-08-18T00:05:06.307Z,15.40
2022-08-18T00:06:06.284Z,14.40
2022-08-18T00:07:06.261Z,13.80
2022-08-18T00:08:06.237Z,13.90
2022-08-18T00:09:06.216Z,13.10
2022-08-18T00:10:06.195Z,14.40
2022-08-18T00:11:06.171Z,14.80
2022-08-18T00:12:06.145Z,15.00
2022-08-18T00:13:06.130Z,15.80
2022-08-18T00:14:06.098Z,16.20
2022-08-18T00:15:06.079Z,16.50
2022-08-18T00:16:06.054Z,15.50
2022-08-18T00:17:06.031Z,13.30
2022-08-18T00:18:06.011Z,13.30
2022-08-18T00:19:09.381Z,14.40
2022-08-18T00:20:05.963Z,12.50
2022-08-18T00:21:05.942Z,12.20
2022-08-18T00:22:05.921Z,13.30
2022-08-18T00:23:05.899Z,13.80
2022-08-18T00:24:05.871Z,12.70
2022-08-18T00:25:05.849Z,11.80
2022-08-18T00:26:05.827Z,12.20
2022-08-18T00:27:05.805Z,12.20
2022-08-18T00:28:05.778Z,12.80
2022-08-18T00:29:05.756Z,12.40
2022-08-18T00:30:05.760Z,13.60
2022-08-18T00:31:05.710Z,13.00
2022-08-18T00:32:05.686Z,12.30
2022-08-18T00:33:05.664Z,13.60
2022-08-18T00:34:05.640Z,12.00
2022-08-18T00:35:05.618Z,11.80
2022-08-18T00:36:05.594Z,12.70
2022-08-18T00:37:05.569Z,12.10
2022-08-18T00:38:05.545Z,12.30
2022-08-18T00:39:05.523Z,12.50
2022-08-18T00:40:05.575Z,13.80
2022-08-18T00:41:05.476Z,13.80
2022-08-18T00:42:05.453Z,11.70
2022-08-18T00:43:05.432Z,13.10
2022-08-18T00:44:05.406Z,12.80
2022-08-18T00:45:05.384Z,13.00
2022-08-18T00:46:05.360Z,12.40
2022-08-18T00:47:05.337Z,13.00
2022-08-18T00:48:05.313Z,11.90
2022-08-18T00:49:05.290Z,11.80
2022-08-18T00:50:05.267Z,12.40
2022-08-18T00:51:05.247Z,11.40
2022-08-18T00:52:05.220Z,13.10
2022-08-18T00:53:05.201Z,11.40
2022-08-18T00:54:05.179Z,10.90
2022-08-18T00:55:05.154Z,12.60
2022-08-18T00:56:05.130Z,10.00
2022-08-18T00:57:05.109Z,10.90
2022-08-18T00:58:05.084Z,11.40
2022-08-18T00:59:05.063Z,10.70
2022-08-18T01:00:05.036Z,11.10
2022-08-18T01:01:05.082Z,10.40
2022-08-18T01:02:04.990Z,10.70
2022-08-18T01:03:04.968Z,11.30
2022-08-18T01:04:04.943Z,12.90
2022-08-18T01:05:04.922Z,10.80
2022-08-18T01:06:04.897Z,11.80
2022-08-18T01:07:04.875Z,11.70
2022-08-18T01:08:04.851Z,12.30
2022-08-18T01:09:04.830Z,12.20
2022-08-18T01:10:04.803Z,11.50
2022-08-18T01:11:04.803Z,11.20
2022-08-18T01:12:44.056Z,14.30
2022-08-18T01:13:04.736Z,11.50
2022-08-18T01:14:04.709Z,11.20
2022-08-18T01:15:04.687Z,12.40
2022-08-18T01:16:04.663Z,11.80
2022-08-18T01:17:04.642Z,10.80
2022-08-18T01:18:04.616Z,10.90
2022-08-18T01:19:04.595Z,11.20
2022-08-18T01:20:04.577Z,12.00
2022-08-18T01:21:04.549Z,12.80
2022-08-18T01:22:04.523Z,12.90
2022-08-18T01:23:04.502Z,11.20
2022-08-18T01:24:04.476Z,11.00
2022-08-18T01:25:04.459Z,12.20
2022-08-18T01:26:04.489Z,12.30
2022-08-18T01:27:04.410Z,11.10
2022-08-18T01:28:04.385Z,11.60
2022-08-18T01:29:04.362Z,11.60
2022-08-18T01:30:04.338Z,13.60
2022-08-18T01:31:04.316Z,12.30
2022-08-18T01:32:04.307Z,12.10
2022-08-18T01:33:04.270Z,14.60
2022-08-18T01:34:04.245Z,12.90
2022-08-18T01:35:04.224Z,12.80
2022-08-18T01:36:04.199Z,10.40
2022-08-18T01:37:04.178Z,14.30
2022-08-18T01:38:04.184Z,12.60
2022-08-18T01:39:04.131Z,13.50
2022-08-18T01:41:26.806Z,12.00
2022-08-18T01:41:27.426Z,12.20
2022-08-18T01:42:04.106Z,12.00
2022-08-18T01:43:04.035Z,12.90
2022-08-18T01:44:04.010Z,12.60
2022-08-18T01:45:03.988Z,12.30
2022-08-18T01:46:03.964Z,14.60
2022-08-18T01:47:03.941Z,12.40
2022-08-18T01:48:04.370Z,14.10
2022-08-18T01:49:03.894Z,11.10
2022-08-18T01:50:03.870Z,12.50
2022-08-18T01:51:03.850Z,13.50
2022-08-18T01:52:03.823Z,13.50
2022-08-18T01:53:03.801Z,14.20
2022-08-18T01:54:03.777Z,11.20
2022-08-18T01:55:03.754Z,12.50
2022-08-18T01:56:03.729Z,11.50
2022-08-18T01:57:03.708Z,12.40
2022-08-18T01:58:03.685Z,12.00
2022-08-18T01:59:03.662Z,13.20
2022-08-18T02:00:03.637Z,13.30
2022-08-18T02:01:03.615Z,12.10
2022-08-18T02:02:03.665Z,11.40
2022-08-18T02:03:03.569Z,12.40
2022-08-18T02:04:31.091Z,10.90
2022-08-18T02:05:03.522Z,10.90
2022-08-18T02:06:03.496Z,11.60
2022-08-18T02:07:04.220Z,10.80
2022-08-18T02:08:03.454Z,10.70
2022-08-18T02:09:03.428Z,12.70
2022-08-18T02:10:03.402Z,13.70
2022-08-18T02:11:03.379Z,12.40
2022-08-18T02:12:03.356Z,15.90
2022-08-18T02:13:03.331Z,14.10
2022-08-18T02:14:03.306Z,14.20
2022-08-18T02:15:03.284Z,13.50
2022-08-18T02:16:03.258Z,15.60
2022-08-18T02:17:03.240Z,14.30
2022-08-18T02:18:03.212Z,13.90
2022-08-18T02:19:03.189Z,16.60
2022-08-18T02:20:03.167Z,16.70
2022-08-18T02:21:03.144Z,18.60
2022-08-18T02:22:03.120Z,18.70
2022-08-18T02:23:03.100Z,19.40
2022-08-18T02:24:03.074Z,22.00
2022-08-18T02:25:03.065Z,21.70
2022-08-18T02:26:03.026Z,21.00
2022-08-18T02:27:03.002Z,22.30
2022-08-18T02:28:02.977Z,20.00
2022-08-18T02:29:02.955Z,21.60
2022-08-18T02:30:02.928Z,21.90
2022-08-18T02:31:02.906Z,22.30
2022-08-18T02:32:02.885Z,21.10
2022-08-18T02:33:02.859Z,21.80
2022-08-18T02:34:02.936Z,21.80
2022-08-18T02:35:02.815Z,20.60
2022-08-18T02:36:02.786Z,19.30
2022-08-18T02:37:02.764Z,19.90
2022-08-18T02:38:02.739Z,21.30
2022-08-18T02:39:02.729Z,21.20
2022-08-18T02:40:02.830Z,22.10
2022-08-18T02:41:02.671Z,20.60
2022-08-18T02:42:02.647Z,21.60
2022-08-18T02:43:02.624Z,20.10
2022-08-18T02:44:02.598Z,22.70
2022-08-18T02:45:02.577Z,23.50
2022-08-18T02:46:02.555Z,23.10
2022-08-18T02:47:02.531Z,23.00
2022-08-18T02:48:02.506Z,21.90
2022-08-18T02:49:02.485Z,24.70
2022-08-18T02:50:02.511Z,24.60
2022-08-18T02:51:02.438Z,21.80
2022-08-18T02:52:02.412Z,19.40
2022-08-18T02:53:02.391Z,19.50
2022-08-18T02:54:02.369Z,19.30
2022-08-18T02:55:02.359Z,18.60
2022-08-18T02:56:02.318Z,18.90
2022-08-18T02:57:02.297Z,19.00
2022-08-18T02:58:02.274Z,19.10
2022-08-18T02:59:02.251Z,18.30
2022-08-18T03:00:02.227Z,18.60
2022-08-18T03:01:02.218Z,17.80
2022-08-18T03:02:02.177Z,18.90
2022-08-18T03:03:02.156Z,17.70
2022-08-18T03:04:02.130Z,16.50
2022-08-18T03:05:02.127Z,19.10
2022-08-18T03:06:02.084Z,18.60
2022-08-18T03:07:02.061Z,21.00
2022-08-18T03:08:02.036Z,19.60
2022-08-18T03:09:02.014Z,21.90
2022-08-18T03:10:31.717Z,19.20
2022-08-18T03:11:01.969Z,19.20
2022-08-18T03:12:01.943Z,17.80
2022-08-18T03:13:01.932Z,18.90
2022-08-18T03:14:01.897Z,17.90
2022-08-18T03:15:01.877Z,21.60
2022-08-18T03:16:01.851Z,19.20
2022-08-18T03:17:01.833Z,18.90
2022-08-18T03:18:01.806Z,19.40
2022-08-18T03:19:01.797Z,20.30
2022-08-18T03:20:02.656Z,18.20
2022-08-18T03:21:01.736Z,19.20
2022-08-18T03:22:02.718Z,18.50
2022-08-18T03:23:09.560Z,17.60
2022-08-18T03:24:02.859Z,17.20
2022-08-18T03:25:01.640Z,17.60
2022-08-18T03:26:01.618Z,18.20
2022-08-18T03:27:01.692Z,16.50
2022-08-18T03:28:01.571Z,17.70
2022-08-18T03:29:01.556Z,19.60
2022-08-18T03:30:01.526Z,18.60
2022-08-18T03:31:01.516Z,20.10
2022-08-18T03:32:01.484Z,20.00
2022-08-18T03:33:01.459Z,21.50
2022-08-18T03:34:01.433Z,23.60
2022-08-18T03:35:01.409Z,18.70
2022-08-18T03:36:01.386Z,18.00
2022-08-18T03:37:01.366Z,20.50
2022-08-18T03:38:01.340Z,20.80
2022-08-18T03:39:01.317Z,18.90
2022-08-18T03:40:01.373Z,19.40
2022-08-18T03:41:01.268Z,18.80
2022-08-18T03:42:02.264Z,19.90
2022-08-18T03:43:02.182Z,20.30
2022-08-18T03:44:01.199Z,19.70
2022-08-18T03:45:01.175Z,20.70
2022-08-18T03:46:01.154Z,18.90
2022-08-18T03:47:01.130Z,19.10
2022-08-18T03:48:01.109Z,19.30
2022-08-18T03:49:01.083Z,21.40
2022-08-18T03:50:01.059Z,18.90
2022-08-18T03:51:04.830Z,21.10
2022-08-18T03:52:01.353Z,21.70
2022-08-18T03:53:00.986Z,20.70
2022-08-18T03:54:00.965Z,22.40
2022-08-18T03:55:00.941Z,22.10
2022-08-18T03:56:00.917Z,21.20
2022-08-18T03:57:00.880Z,21.50
2022-08-18T03:58:00.860Z,22.50
2022-08-18T03:59:00.847Z,22.10
2022-08-18T04:00:00.825Z,23.50
2022-08-18T04:01:00.861Z,23.40
2022-08-18T04:02:00.946Z,25.80
2022-08-18T04:03:00.754Z,23.90
2022-08-18T04:04:00.729Z,23.80
2022-08-18T04:05:00.707Z,23.90
2022-08-18T04:06:00.686Z,25.20
2022-08-18T04:07:00.664Z,24.10
2022-08-18T04:08:00.639Z,26.30
2022-08-18T04:09:00.613Z,24.80
2022-08-18T04:10:00.591Z,24.90
2022-08-18T04:11:00.567Z,26.80
2022-08-18T04:12:00.545Z,25.50
2022-08-18T04:13:00.519Z,26.20
2022-08-18T04:14:00.498Z,26.80
2022-08-18T04:15:00.473Z,30.90
2022-08-18T04:16:00.450Z,26.90
2022-08-18T04:17:00.426Z,27.70
2022-08-18T04:18:03.901Z,25.40
2022-08-18T04:19:00.383Z,26.90
2022-08-18T04:20:00.359Z,25.60
2022-08-18T04:21:00.334Z,25.70
2022-08-18T04:22:00.309Z,26.10
2022-08-18T04:23:00.288Z,27.20
2022-08-18T04:24:00.261Z,27.30
2022-08-18T04:25:00.237Z,28.90
2022-08-18T04:26:00.214Z,27.80
2022-08-18T04:27:00.190Z,30.20
2022-08-18T04:28:00.167Z,27.80
2022-08-18T04:29:00.145Z,29.50
2022-08-18T04:30:00.171Z,27.70
2022-08-18T04:31:00.100Z,30.20
2022-08-18T04:32:00.081Z,28.50
2022-08-18T04:33:00.071Z,27.20
2022-08-18T04:34:00.048Z,29.00
2022-08-18T04:35:02.512Z,30.10
2022-08-18T04:35:59.982Z,28.90
2022-08-18T04:36:59.955Z,29.90
2022-08-18T04:37:59.934Z,39.10
2022-08-18T04:38:59.909Z,38.10
2022-08-18T04:39:59.984Z,85.40
2022-08-18T04:40:59.862Z,73.30
2022-08-18T04:41:59.841Z,54.70
2022-08-18T04:42:59.815Z,55.70
2022-08-18T04:43:59.791Z,47.70
2022-08-18T04:44:59.773Z,38.50
2022-08-18T04:45:59.745Z,52.50
2022-08-18T04:46:59.724Z,152.60
2022-08-18T04:47:59.697Z,109.20
2022-08-18T04:48:59.673Z,89.60
2022-08-18T04:49:59.650Z,81.70
2022-08-18T04:50:59.626Z,50.80
2022-08-18T04:52:34.539Z,40.90
2022-08-18T04:52:59.580Z,41.10
2022-08-18T04:53:59.558Z,42.80
2022-08-18T04:54:59.534Z,33.90
2022-08-18T04:55:59.511Z,33.70
2022-08-18T04:56:59.487Z,34.10
2022-08-18T04:57:59.467Z,33.40
2022-08-18T04:58:59.441Z,32.70
2022-08-18T04:59:59.415Z,30.00
2022-08-18T05:00:59.451Z,28.00
2022-08-18T05:01:59.370Z,28.20
2022-08-18T05:02:59.345Z,30.90
2022-08-18T05:03:59.322Z,25.60
2022-08-18T05:04:59.297Z,25.20
2022-08-18T05:05:59.278Z,27.40
2022-08-18T05:06:59.252Z,25.30
2022-08-18T05:07:59.227Z,25.30
2022-08-18T05:08:59.202Z,25.10
2022-08-18T05:09:59.181Z,23.60
2022-08-18T05:11:03.912Z,23.30
2022-08-18T05:11:59.131Z,23.10
2022-08-18T05:12:59.109Z,24.00
2022-08-18T05:13:59.089Z,21.70
2022-08-18T05:14:59.071Z,22.60
2022-08-18T05:16:10.947Z,22.60
2022-08-18T05:16:59.014Z,21.70
2022-08-18T05:17:58.992Z,23.60
2022-08-18T05:18:58.968Z,22.90
2022-08-18T05:19:58.942Z,22.70
2022-08-18T05:20:59.233Z,22.00
2022-08-18T05:22:00.061Z,23.00
2022-08-18T05:22:58.872Z,22.70
2022-08-18T05:23:58.852Z,23.30
2022-08-18T05:24:58.809Z,24.90
2022-08-18T05:25:58.788Z,24.80
2022-08-18T05:26:58.779Z,24.60
2022-08-18T05:27:58.756Z,21.60
2022-08-18T05:29:17.578Z,21.40
2022-08-18T05:29:58.709Z,19.40
2022-08-18T05:31:00.335Z,18.80
2022-08-18T05:31:58.661Z,20.10
2022-08-18T05:32:58.637Z,20.90
2022-08-18T05:33:58.616Z,19.40
2022-08-18T05:34:58.591Z,20.50
2022-08-18T05:35:58.567Z,19.60
2022-08-18T05:36:58.543Z,19.00
2022-08-18T05:37:58.521Z,19.00
2022-08-18T05:38:58.496Z,19.90
2022-08-18T05:39:58.547Z,19.30
2022-08-18T05:40:58.448Z,19.80
2022-08-18T05:41:58.426Z,20.20
2022-08-18T05:42:58.400Z,20.90
2022-08-18T05:43:58.379Z,19.90
2022-08-18T05:44:58.354Z,20.50
2022-08-18T05:45:58.333Z,18.70
2022-08-18T05:46:58.308Z,18.90
2022-08-18T05:47:58.286Z,19.20
2022-08-18T05:48:58.262Z,18.60
2022-08-18T05:49:58.242Z,17.80
2022-08-18T05:50:58.215Z,18.80
2022-08-18T05:51:58.191Z,19.10
2022-08-18T05:52:59.567Z,18.00
2022-08-18T05:53:58.146Z,18.50
2022-08-18T05:54:58.121Z,19.10
2022-08-18T05:55:58.098Z,18.80
2022-08-18T05:56:58.076Z,19.00
2022-08-18T05:57:58.054Z,19.20
2022-08-18T05:58:58.030Z,19.50
2022-08-18T05:59:58.007Z,18.80
2022-08-18T06:00:59.755Z,18.00
2022-08-18T06:01:57.964Z,18.20
2022-08-18T06:02:58.000Z,19.20
2022-08-18T06:03:57.920Z,19.20
2022-08-18T06:04:57.891Z,16.70
2022-08-18T06:05:57.869Z,16.50
2022-08-18T06:06:57.850Z,18.00
2022-08-18T06:07:57.823Z,16.30
2022-08-18T06:08:57.798Z,17.60
2022-08-18T06:09:57.777Z,17.60
2022-08-18T06:10:57.754Z,17.40
2022-08-18T06:11:57.731Z,16.40
2022-08-18T06:12:57.706Z,17.50
2022-08-18T06:13:59.217Z,16.70
2022-08-18T06:14:57.661Z,15.70
2022-08-18T06:15:57.639Z,15.00
2022-08-18T06:16:57.616Z,15.90
2022-08-18T06:17:57.594Z,14.10
2022-08-18T06:18:57.572Z,15.00
2022-08-18T06:19:57.549Z,13.40
2022-08-18T06:20:57.525Z,14.40
2022-08-18T06:21:57.504Z,14.00
2022-08-18T06:22:57.484Z,14.00
2022-08-18T06:23:57.465Z,14.00
2022-08-18T06:24:57.436Z,13.80
2022-08-18T06:25:57.414Z,12.90
2022-08-18T06:26:57.394Z,13.40
2022-08-18T06:27:57.369Z,13.50
2022-08-18T06:28:57.350Z,15.40
2022-08-18T06:29:57.328Z,13.00
2022-08-18T06:30:57.305Z,13.90
2022-08-18T06:31:57.283Z,12.50
2022-08-18T06:32:57.259Z,14.40
2022-08-18T06:33:57.238Z,12.40
2022-08-18T06:34:57.216Z,12.70
2022-08-18T06:35:57.194Z,12.80
2022-08-18T06:36:57.169Z,12.10
2022-08-18T06:37:57.147Z,13.40
2022-08-18T06:38:57.124Z,13.00
2022-08-18T06:39:57.284Z,13.20
2022-08-18T06:40:57.079Z,14.80
2022-08-18T06:41:57.059Z,15.10
2022-08-18T06:43:02.023Z,14.60
2022-08-18T06:43:57.013Z,14.10
2022-08-18T06:44:56.993Z,15.90
2022-08-18T06:45:56.973Z,14.60
2022-08-18T06:46:56.953Z,13.40
2022-08-18T06:47:56.927Z,14.60
2022-08-18T06:48:56.903Z,12.90
2022-08-18T06:49:56.883Z,13.20
2022-08-18T06:50:56.860Z,13.30
2022-08-18T06:51:56.841Z,13.20
2022-08-18T06:52:56.817Z,12.80
2022-08-18T06:53:56.795Z,12.80
2022-08-18T06:54:56.772Z,13.50
2022-08-18T06:55:56.750Z,13.60
2022-08-18T06:56:56.726Z,12.90
2022-08-18T06:57:56.706Z,14.20
2022-08-18T06:58:56.683Z,12.20
2022-08-18T06:59:56.659Z,11.10
2022-08-18T07:00:56.730Z,11.80
2022-08-18T07:01:56.614Z,13.80
2022-08-18T07:02:56.590Z,11.80
2022-08-18T07:03:56.569Z,13.10
2022-08-18T07:04:56.544Z,12.70
2022-08-18T07:05:56.525Z,16.10
2022-08-18T07:06:56.500Z,14.90
2022-08-18T07:07:57.001Z,13.40
2022-08-18T07:08:56.454Z,14.50
2022-08-18T07:09:56.432Z,14.60
2022-08-18T07:10:56.408Z,16.00
2022-08-18T07:11:56.385Z,14.10
2022-08-18T07:12:56.361Z,13.30
2022-08-18T07:14:14.920Z,14.60
2022-08-18T07:14:56.316Z,13.40
2022-08-18T07:15:56.295Z,14.10
2022-08-18T07:16:58.770Z,14.20
2022-08-18T07:17:56.416Z,14.50
2022-08-18T07:18:56.227Z,14.30
2022-08-18T07:19:56.206Z,14.40
2022-08-18T07:20:56.183Z,13.70
2022-08-18T07:21:56.173Z,14.30
2022-08-18T07:22:56.136Z,14.20
2022-08-18T07:24:21.054Z,14.50
2022-08-18T07:24:56.092Z,13.60
2022-08-18T07:25:56.068Z,16.10
2022-08-18T07:26:56.046Z,13.80
2022-08-18T07:27:56.024Z,12.90
2022-08-18T07:28:55.998Z,13.20
2022-08-18T07:29:55.978Z,13.40
2022-08-18T07:31:15.942Z,13.40
2022-08-18T07:31:55.930Z,12.20
2022-08-18T07:32:55.907Z,12.20
2022-08-18T07:33:55.885Z,12.00
2022-08-18T07:34:55.860Z,12.00
2022-08-18T07:35:55.839Z,12.40
2022-08-18T07:36:55.820Z,13.10
2022-08-18T07:37:55.792Z,12.10
2022-08-18T07:38:55.774Z,11.70
2022-08-18T07:39:55.837Z,14.50
2022-08-18T07:40:55.728Z,12.40
2022-08-18T07:41:55.704Z,14.80
2022-08-18T07:43:01.820Z,13.30
2022-08-18T07:43:55.658Z,13.50
2022-08-18T07:44:55.636Z,13.70
2022-08-18T07:45:55.614Z,14.50
2022-08-18T07:46:55.593Z,15.30
2022-08-18T07:47:55.568Z,13.90
2022-08-18T07:48:55.545Z,15.30
2022-08-18T07:50:17.069Z,15.90
2022-08-18T07:50:58.038Z,14.40
2022-08-18T07:51:55.476Z,14.70
2022-08-18T07:52:55.456Z,15.50
2022-08-18T07:53:56.270Z,14.30
2022-08-18T07:54:55.412Z,14.50
2022-08-18T07:55:55.389Z,15.20
2022-08-18T07:56:55.368Z,14.60
2022-08-18T07:57:55.605Z,13.80
2022-08-18T07:58:55.324Z,12.90
2022-08-18T07:59:55.300Z,13.20
2022-08-18T08:00:59.088Z,13.40
2022-08-18T08:01:55.303Z,13.50
2022-08-18T08:02:55.334Z,13.00
2022-08-18T08:03:55.212Z,13.70
2022-08-18T08:04:55.194Z,13.70
2022-08-18T08:05:55.172Z,13.60
2022-08-18T08:07:20.679Z,14.30
2022-08-18T08:07:55.127Z,15.10
2022-08-18T08:08:55.113Z,12.00
2022-08-18T08:09:55.088Z,13.90
2022-08-18T08:10:55.068Z,13.40
2022-08-18T08:11:55.040Z,14.10
2022-08-18T08:13:08.057Z,11.30
2022-08-18T08:13:56.496Z,10.30
2022-08-18T08:14:54.977Z,10.10
2022-08-18T08:15:54.953Z,11.60
2022-08-18T08:16:54.932Z,11.90
2022-08-18T08:17:54.914Z,11.80
2022-08-18T08:18:54.890Z,15.10
2022-08-18T08:20:02.569Z,15.10
2022-08-18T08:20:54.844Z,12.80
2022-08-18T08:21:54.821Z,12.20
2022-08-18T08:22:54.802Z,11.90
2022-08-18T08:23:54.778Z,11.80
2022-08-18T08:24:54.759Z,12.20
2022-08-18T08:25:54.737Z,12.60
2022-08-18T08:26:54.718Z,12.00
2022-08-18T08:27:54.693Z,14.00
2022-08-18T08:28:56.012Z,14.00
2022-08-18T08:29:54.650Z,14.40
2022-08-18T08:30:54.630Z,14.70
2022-08-18T08:31:54.623Z,15.60
2022-08-18T08:32:54.587Z,15.20
2022-08-18T08:33:54.564Z,14.80
2022-08-18T08:34:54.544Z,14.90
2022-08-18T08:35:54.523Z,14.60
2022-08-18T08:36:54.503Z,14.30
2022-08-18T08:37:54.481Z,14.00
2022-08-18T08:38:54.459Z,15.10
2022-08-18T08:39:54.508Z,15.40
2022-08-18T08:40:54.418Z,14.20
2022-08-18T08:41:54.394Z,14.30
2022-08-18T08:42:54.375Z,14.40
2022-08-18T08:43:54.351Z,13.20
2022-08-18T08:45:00.570Z,14.00
2022-08-18T08:45:54.308Z,14.60
2022-08-18T08:46:54.299Z,14.40
2022-08-18T08:47:57.310Z,14.60
2022-08-18T08:48:54.245Z,14.70
2022-08-18T08:49:59.062Z,14.00
2022-08-18T08:50:54.203Z,13.80
2022-08-18T08:51:54.181Z,15.80
2022-08-18T08:52:57.173Z,14.30
2022-08-18T08:53:54.142Z,14.10
2022-08-18T08:54:54.140Z,12.30
2022-08-18T08:55:56.630Z,13.80
2022-08-18T08:56:54.080Z,13.40
2022-08-18T08:57:54.274Z,13.00
2022-08-18T08:58:54.025Z,12.40
2022-08-18T08:59:54.018Z,12.70
2022-08-18T09:00:54.003Z,13.20
2022-08-18T09:01:54.082Z,11.80
2022-08-18T09:02:53.959Z,18.10
2022-08-18T09:03:53.935Z,15.60
2022-08-18T09:05:08.570Z,13.00
2022-08-18T09:05:56.842Z,12.30
2022-08-18T09:06:53.876Z,11.70
2022-08-18T09:07:53.856Z,12.00
2022-08-18T09:08:53.833Z,12.30
2022-08-18T09:09:53.817Z,13.60
2022-08-18T09:10:53.796Z,13.20
2022-08-18T09:11:53.772Z,11.60
2022-08-18T09:12:53.964Z,12.40
2022-08-18T09:13:53.731Z,11.00
2022-08-18T09:14:53.712Z,13.80
2022-08-18T09:15:53.690Z,11.90
2022-08-18T09:16:53.673Z,12.00
2022-08-18T09:17:53.651Z,9.50
2022-08-18T09:18:53.633Z,10.60
2022-08-18T09:19:53.611Z,12.10
2022-08-18T09:20:53.597Z,11.80
2022-08-18T09:21:53.571Z,10.70
2022-08-18T09:22:53.705Z,12.00
2022-08-18T09:23:53.533Z,11.60
2022-08-18T09:24:53.513Z,13.90
2022-08-18T09:25:53.493Z,11.20
2022-08-18T09:26:53.473Z,12.10
2022-08-18T09:28:10.367Z,11.70
2022-08-18T09:28:53.434Z,11.80
2022-08-18T09:29:53.413Z,12.50
2022-08-18T09:30:53.395Z,12.10
2022-08-18T09:31:53.372Z,10.60
2022-08-18T09:32:53.564Z,10.90
2022-08-18T09:33:53.333Z,11.30
2022-08-18T09:34:53.314Z,14.10
2022-08-18T09:35:54.725Z,11.40
2022-08-18T09:36:53.275Z,11.20
2022-08-18T09:37:53.253Z,10.00
2022-08-18T09:38:53.235Z,11.20
2022-08-18T09:39:54.850Z,10.80
2022-08-18T09:41:02.363Z,10.80
2022-08-18T09:41:53.174Z,10.40
2022-08-18T09:42:53.154Z,11.20
2022-08-18T09:43:53.131Z,11.60
2022-08-18T09:44:53.112Z,10.10
2022-08-18T09:45:53.090Z,9.90
2022-08-18T09:46:53.071Z,10.30
2022-08-18T09:47:53.050Z,9.20
2022-08-18T09:48:53.031Z,9.70
2022-08-18T09:50:52.996Z,9.80
2022-08-18T09:51:52.970Z,10.20
2022-08-18T09:52:53.399Z,10.00
2022-08-18T09:53:52.929Z,10.30
2022-08-18T09:54:52.911Z,10.00
2022-08-18T09:55:53.606Z,9.50
2022-08-18T09:56:54.346Z,9.50
2022-08-18T09:57:52.853Z,10.30
2022-08-18T09:58:52.834Z,8.80
2022-08-18T09:59:52.813Z,10.90
2022-08-18T10:00:52.794Z,10.40
2022-08-18T10:01:52.879Z,9.30
2022-08-18T10:02:54.162Z,11.50
2022-08-18T10:03:52.734Z,10.00
2022-08-18T10:04:52.714Z,9.00
2022-08-18T10:05:52.694Z,9.40
2022-08-18T10:06:52.675Z,9.20
2022-08-18T10:07:52.654Z,9.10
2022-08-18T10:08:52.636Z,9.20
2022-08-18T10:09:52.615Z,8.40
2022-08-18T10:11:52.575Z,9.80
2022-08-18T10:12:52.749Z,9.30
2022-08-18T10:13:52.534Z,10.60
2022-08-18T10:14:52.518Z,8.70
2022-08-18T10:15:52.494Z,8.50
2022-08-18T10:17:52.457Z,8.60
2022-08-18T10:18:53.003Z,8.40
2022-08-18T10:19:52.426Z,8.50
2022-08-18T10:20:52.400Z,8.60
2022-08-18T10:21:53.805Z,8.60
2022-08-18T10:22:52.532Z,9.40
2022-08-18T10:24:52.322Z,9.20
2022-08-18T10:25:52.302Z,9.20
2022-08-18T10:26:54.004Z,10.10
2022-08-18T10:27:52.262Z,8.70
2022-08-18T10:28:52.246Z,8.10
2022-08-18T10:29:52.268Z,8.60
2022-08-18T10:30:56.819Z,8.10
2022-08-18T10:31:54.167Z,8.00
2022-08-18T10:33:52.969Z,8.40
2022-08-18T10:34:52.849Z,9.30
2022-08-18T10:35:52.112Z,9.10
2022-08-18T10:36:52.094Z,8.30
2022-08-18T10:37:52.074Z,8.40
2022-08-18T10:38:52.059Z,9.20
2022-08-18T10:39:52.070Z,12.30
2022-08-18T10:40:52.021Z,9.00
2022-08-18T10:41:55.016Z,10.80
2022-08-18T10:42:53.196Z,9.10
2022-08-18T10:44:51.940Z,8.70
2022-08-18T10:46:51.903Z,9.10
2022-08-18T10:47:51.882Z,9.00
2022-08-18T10:48:51.879Z,10.20
2022-08-18T10:49:51.846Z,10.10
2022-08-18T10:50:51.829Z,10.00
2022-08-18T10:52:00.011Z,11.30
2022-08-18T10:53:51.784Z,8.70
2022-08-18T10:54:54.467Z,9.30
2022-08-18T10:55:51.830Z,10.20
2022-08-18T10:56:51.723Z,9.80
2022-08-18T10:57:51.706Z,10.00
2022-08-18T10:58:51.693Z,9.70
2022-08-18T10:59:54.660Z,9.60
2022-08-18T11:00:51.686Z,9.10
2022-08-18T11:01:51.628Z,10.70
2022-08-18T11:02:52.321Z,9.50
2022-08-18T11:03:55.523Z,10.00
2022-08-18T11:04:58.986Z,10.10
2022-08-18T11:05:51.557Z,10.40
2022-08-18T11:06:51.540Z,10.60
2022-08-18T11:07:56.394Z,8.90
2022-08-18T11:08:55.099Z,9.80
2022-08-18T11:10:04.702Z,8.90
2022-08-18T11:11:32.671Z,8.80
2022-08-18T11:11:53.216Z,9.40
2022-08-18T11:12:51.427Z,8.50
2022-08-18T11:13:51.409Z,9.30
2022-08-18T11:14:51.394Z,9.40
2022-08-18T11:15:51.371Z,11.90
2022-08-18T11:16:51.354Z,8.80
2022-08-18T11:17:51.336Z,9.90
2022-08-18T11:18:52.831Z,8.70
2022-08-18T11:19:51.298Z,8.40
2022-08-18T11:20:51.281Z,11.00
2022-08-18T11:21:51.815Z,8.20
2022-08-18T11:22:51.622Z,9.10
2022-08-18T11:23:51.225Z,9.90
2022-08-18T11:24:51.208Z,9.30
2022-08-18T11:25:51.189Z,9.80
2022-08-18T11:26:52.922Z,9.50
2022-08-18T11:27:51.152Z,8.70
2022-08-18T11:28:51.132Z,9.60
2022-08-18T11:29:51.113Z,8.20
2022-08-18T11:30:51.094Z,10.20
2022-08-18T11:32:52.282Z,12.00
2022-08-18T11:33:51.240Z,9.00
2022-08-18T11:34:52.769Z,9.30
2022-08-18T11:35:51.000Z,9.30
2022-08-18T11:36:50.981Z,8.50
2022-08-18T11:37:53.553Z,8.00
2022-08-18T11:38:50.943Z,8.70
2022-08-18T11:39:51.017Z,8.70
2022-08-18T11:41:10.861Z,8.90
2022-08-18T11:41:50.973Z,8.30
2022-08-18T11:42:51.115Z,8.30
2022-08-18T11:43:51.018Z,8.40
2022-08-18T11:44:50.834Z,9.50
2022-08-18T11:45:50.814Z,10.80
2022-08-18T11:46:51.963Z,9.60
2022-08-18T11:47:50.775Z,8.70
2022-08-18T11:48:52.614Z,9.40
2022-08-18T11:49:50.739Z,9.70
2022-08-18T11:50:54.332Z,9.30
2022-08-18T11:51:50.700Z,8.30
2022-08-18T11:52:53.657Z,7.00
2022-08-18T11:53:55.709Z,6.60
2022-08-18T11:55:53.270Z,10.40
2022-08-18T11:56:50.624Z,8.00
2022-08-18T11:57:50.585Z,7.20
2022-08-18T11:58:50.781Z,10.40
2022-08-18T11:59:54.648Z,7.30
2022-08-18T12:00:50.527Z,7.60
2022-08-18T12:01:51.533Z,7.80
2022-08-18T12:02:50.494Z,8.30
2022-08-18T12:03:50.470Z,7.30
2022-08-18T12:04:50.845Z,8.60
2022-08-18T12:05:54.038Z,7.00
2022-08-18T12:06:50.413Z,7.80
2022-08-18T12:07:57.833Z,10.30
2022-08-18T12:08:57.667Z,8.30
2022-08-18T12:10:51.061Z,7.90
2022-08-18T12:11:50.317Z,8.60
2022-08-18T12:12:51.956Z,8.70
2022-08-18T12:13:50.280Z,8.50
2022-08-18T12:14:50.262Z,8.00
2022-08-18T12:15:50.242Z,8.10
2022-08-18T12:16:50.728Z,8.30
2022-08-18T12:17:52.950Z,7.80
2022-08-18T12:18:50.184Z,7.30
2022-08-18T12:19:50.163Z,7.40
2022-08-18T12:20:51.319Z,8.30
2022-08-18T12:21:50.125Z,10.30
2022-08-18T12:22:50.118Z,8.10
2022-08-18T12:23:52.401Z,8.80
2022-08-18T12:24:50.064Z,7.00
2022-08-18T12:25:51.938Z,8.70
2022-08-18T12:26:50.025Z,8.40
2022-08-18T12:27:50.007Z,8.30
2022-08-18T12:28:49.986Z,8.60
2022-08-18T12:29:50.377Z,8.10
2022-08-18T12:30:57.030Z,9.60
2022-08-18T12:31:49.930Z,8.30
2022-08-18T12:32:55.513Z,8.90
2022-08-18T12:34:01.271Z,8.40
2022-08-18T12:34:49.871Z,7.50
2022-08-18T12:35:49.852Z,8.20
2022-08-18T12:36:49.835Z,7.30
2022-08-18T12:38:13.145Z,7.60
2022-08-18T12:38:52.303Z,8.00
2022-08-18T12:39:49.837Z,7.50
2022-08-18T12:40:49.755Z,9.40
2022-08-18T12:41:49.738Z,7.60
2022-08-18T12:42:49.719Z,7.50
2022-08-18T12:43:59.131Z,7.30
2022-08-18T12:44:49.678Z,7.70
2022-08-18T12:45:49.661Z,10.10
2022-08-18T12:46:49.642Z,8.50
2022-08-18T12:47:49.621Z,8.90
2022-08-18T12:48:49.602Z,9.10
2022-08-18T12:49:50.799Z,7.60
2022-08-18T12:51:50.455Z,8.10
2022-08-18T12:52:49.579Z,7.60
2022-08-18T12:54:55.250Z,9.20
2022-08-18T12:55:49.464Z,8.20
2022-08-18T12:56:49.459Z,8.00
2022-08-18T12:57:53.521Z,8.50
2022-08-18T12:58:49.410Z,7.40
2022-08-18T12:59:49.388Z,9.60
2022-08-18T13:00:49.439Z,7.20
2022-08-18T13:01:49.403Z,7.00
2022-08-18T13:02:49.409Z,7.00
2022-08-18T13:03:52.763Z,8.00
2022-08-18T13:04:49.330Z,9.00
2022-08-18T13:05:49.276Z,6.60
2022-08-18T13:07:00.443Z,7.90
2022-08-18T13:07:49.317Z,7.00
2022-08-18T13:08:50.253Z,8.00
2022-08-18T13:09:53.923Z,7.90